Time;durP1;ratioP1;P1;durP2;ratioP2;P2;SDS_P1;SDS_P2;PMS_P1;PMS_P2;Temp;Humidity;BMP_temperature;BMP_pressure;BME280_temperature;BME280_humidity;BME280_pressure;Samples;Min_cycle;Max_cycle;Signal;HPM_P1;HPM_P2
2021/09/29 00:01:03;;;;;;;;;;;11.10;46.80;;;;;;4346058;33;20015;-37
2021/09/29 00:03:30;;;;;;;;;;;11.00;46.90;;;;;;4345967;33;19985;-37
2021/09/29 00:05:56;;;;;;;;;;;11.00;47.10;;;;;;4346288;33;19970;-37
2021/09/29 00:08:22;;;;;;;;;;;11.00;47.00;;;;;;4345864;33;19966;-37
2021/09/29 00:10:48;;;;;;;;;;;11.00;47.00;;;;;;4345846;33;19971;-38
2021/09/29 00:13:14;;;;;;;;;;;11.00;47.00;;;;;;4345370;33;19975;-37
2021/09/29 00:15:40;;;;;;;;;;;11.00;47.00;;;;;;4345690;33;19982;-36
2021/09/29 00:18:06;;;;;;;;;;;11.00;47.10;;;;;;4345789;33;20423;-37
2021/09/29 00:20:33;;;;;;;;;;;11.00;47.10;;;;;;4352137;32;19981;-38
2021/09/29 00:22:59;;;;;;;;;;;11.00;47.00;;;;;;4360150;32;20013;-37
2021/09/29 00:25:25;;;;;;;;;;;11.00;47.10;;;;;;4360608;32;20076;-37
2021/09/29 00:27:51;;;;;;;;;;;10.90;47.20;;;;;;4360651;32;20090;-37
2021/09/29 00:30:19;;;;;;;;;;;10.90;47.40;;;;;;4360242;32;20451;-37
2021/09/29 00:32:45;;;;;;;;;;;10.80;47.40;;;;;;4360343;32;19962;-37
2021/09/29 00:35:13;;;;;;;;;;;10.80;47.50;;;;;;4360283;32;19974;-37
2021/09/29 00:37:39;;;;;;;;;;;10.80;47.60;;;;;;4360469;32;20354;-37
2021/09/29 00:40:06;;;;;;;;;;;10.80;47.60;;;;;;4360842;32;20045;-38
2021/09/29 00:42:32;;;;;;;;;;;10.80;47.70;;;;;;4360134;32;20077;-36
2021/09/29 00:44:59;;;;;;;;;;;10.80;47.70;;;;;;4359941;32;20439;-37
2021/09/29 00:47:27;;;;;;;;;;;10.80;47.80;;;;;;4346113;32;19975;-37
2021/09/29 00:49:54;;;;;;;;;;;10.70;47.70;;;;;;4345218;33;19993;-38
2021/09/29 00:52:20;;;;;;;;;;;10.70;47.80;;;;;;4345267;33;19990;-37
2021/09/29 00:54:46;;;;;;;;;;;10.70;47.80;;;;;;4345068;33;19959;-36
2021/09/29 00:57:12;;;;;;;;;;;10.70;47.80;;;;;;4318876;33;19994;-36
2021/09/29 00:59:38;;;;;;;;;;;10.70;47.90;;;;;;4345507;33;20020;-36
2021/09/29 01:02:05;;;;;;;;;;;10.70;48.00;;;;;;4344875;33;20483;-38
2021/09/29 01:04:31;;;;;;;;;;;10.70;48.00;;;;;;4327420;33;20099;-37
2021/09/29 01:07:19;;;;;;;;;;;10.60;48.10;;;;;;4315510;33;20451;-37
2021/09/29 01:09:53;;;;;;;;;;;10.60;48.10;;;;;;4316205;33;20061;-37
2021/09/29 01:12:29;;;;;;;;;;;10.60;48.10;;;;;;4327791;33;19998;-37
2021/09/29 01:14:57;;;;;;;;;;;10.60;48.20;;;;;;4327434;33;19978;-37
2021/09/29 01:17:23;;;;;;;;;;;10.60;48.30;;;;;;4315624;33;19967;-37
2021/09/29 01:20:09;;;;;;;;;;;10.60;48.30;;;;;;4327515;33;20005;-37
2021/09/29 01:22:59;;;;;;;;;;;10.60;48.50;;;;;;4327967;33;20035;-37
2021/09/29 01:25:42;;;;;;;;;;;10.50;48.60;;;;;;4327412;33;20035;-36
2021/09/29 01:28:08;;;;;;;;;;;10.50;48.80;;;;;;4315634;33;19966;-37
2021/09/29 01:30:37;;;;;;;;;;;10.50;48.90;;;;;;4327357;33;19982;-36
2021/09/29 01:33:03;;;;;;;;;;;10.50;49.00;;;;;;4315208;33;19995;-38
2021/09/29 01:35:29;;;;;;;;;;;10.50;48.90;;;;;;4304830;33;20084;-37
2021/09/29 01:37:56;;;;;;;;;;;10.60;48.90;;;;;;4312274;33;20420;-37
2021/09/29 01:40:22;;;;;;;;;;;10.60;48.90;;;;;;4312464;33;20023;-38
2021/09/29 01:42:49;;;;;;;;;;;10.60;48.90;;;;;;4312028;33;20412;-37
2021/09/29 01:45:15;;;;;;;;;;;10.60;48.80;;;;;;4312233;33;20039;-38
2021/09/29 01:47:41;;;;;;;;;;;10.60;48.80;;;;;;4314734;33;20021;-38
2021/09/29 01:50:08;;;;;;;;;;;10.60;48.70;;;;;;4326829;33;20041;-38
2021/09/29 01:52:37;;;;;;;;;;;10.60;48.90;;;;;;4326866;33;20002;-38
2021/09/29 01:55:04;;;;;;;;;;;10.50;48.90;;;;;;4314978;33;19991;-38
2021/09/29 01:57:31;;;;;;;;;;;10.50;49.10;;;;;;4326931;33;20086;-38
2021/09/29 01:59:57;;;;;;;;;;;10.50;49.10;;;;;;4315116;33;19979;-36
2021/09/29 02:02:23;;;;;;;;;;;10.50;49.20;;;;;;4314548;33;20440;-37
2021/09/29 02:04:51;;;;;;;;;;;10.50;49.20;;;;;;4314488;33;20476;-37
2021/09/29 02:07:17;;;;;;;;;;;10.50;49.30;;;;;;4326841;33;19966;-36
2021/09/29 02:09:43;;;;;;;;;;;10.40;49.30;;;;;;4327349;33;19971;-38
2021/09/29 02:12:10;;;;;;;;;;;10.40;49.30;;;;;;4320354;32;20421;-37
2021/09/29 02:14:37;;;;;;;;;;;10.40;49.40;;;;;;4358573;32;19963;-37
2021/09/29 02:17:03;;;;;;;;;;;10.40;49.40;;;;;;4358748;32;19962;-37
2021/09/29 02:19:29;;;;;;;;;;;10.40;49.40;;;;;;4358362;32;19978;-38
2021/09/29 02:21:56;;;;;;;;;;;10.40;49.50;;;;;;4344848;32;19978;-37
2021/09/29 02:24:22;;;;;;;;;;;10.40;49.40;;;;;;4359005;32;19958;-39
2021/09/29 02:26:48;;;;;;;;;;;10.40;49.50;;;;;;4358823;32;19959;-37
2021/09/29 02:29:15;;;;;;;;;;;10.40;49.50;;;;;;4358914;32;19962;-38
2021/09/29 02:31:41;;;;;;;;;;;10.40;49.50;;;;;;4358988;32;19978;-39
2021/09/29 02:34:07;;;;;;;;;;;10.30;49.20;;;;;;4358776;32;19966;-37
2021/09/29 02:36:34;;;;;;;;;;;10.30;49.40;;;;;;4344347;32;20071;-38
2021/09/29 02:39:00;;;;;;;;;;;10.30;49.30;;;;;;4358895;32;20021;-38
2021/09/29 02:41:26;;;;;;;;;;;10.30;49.20;;;;;;4344772;32;20405;-38
2021/09/29 02:43:53;;;;;;;;;;;10.30;49.30;;;;;;4358069;32;20473;-38
2021/09/29 02:46:19;;;;;;;;;;;10.30;49.20;;;;;;4358322;32;19978;-37
2021/09/29 02:48:45;;;;;;;;;;;10.30;49.20;;;;;;4349843;32;19974;-37
2021/09/29 02:51:11;;;;;;;;;;;10.20;49.10;;;;;;4343735;33;19994;-38
2021/09/29 02:53:38;;;;;;;;;;;10.20;49.30;;;;;;4343544;33;20009;-38
2021/09/29 02:56:04;;;;;;;;;;;10.10;49.40;;;;;;4343768;33;19977;-37
2021/09/29 02:58:30;;;;;;;;;;;10.10;49.40;;;;;;4343544;33;20021;-37
2021/09/29 03:00:59;;;;;;;;;;;10.10;49.40;;;;;;4329719;33;19968;-38
2021/09/29 03:03:25;;;;;;;;;;;10.10;49.60;;;;;;4343877;33;19962;-38
2021/09/29 03:05:52;;;;;;;;;;;10.10;49.60;;;;;;4343524;33;19967;-38
2021/09/29 03:08:18;;;;;;;;;;;10.10;49.60;;;;;;4343526;33;20004;-36
2021/09/29 03:10:44;;;;;;;;;;;10.10;49.60;;;;;;4343399;33;19959;-38
2021/09/29 03:13:11;;;;;;;;;;;10.10;49.50;;;;;;4343270;33;20046;-37
2021/09/29 03:15:37;;;;;;;;;;;10.20;49.60;;;;;;4343333;33;19977;-37
2021/09/29 03:18:04;;;;;;;;;;;10.20;49.40;;;;;;4343482;33;19990;-37
2021/09/29 03:20:30;;;;;;;;;;;10.20;49.30;;;;;;4343341;33;19987;-38
2021/09/29 03:22:57;;;;;;;;;;;10.30;49.30;;;;;;4311173;33;20116;-37
2021/09/29 03:25:23;;;;;;;;;;;10.30;49.10;;;;;;4311718;33;19975;-39
2021/09/29 03:27:50;;;;;;;;;;;10.30;49.00;;;;;;4311229;33;19971;-37
2021/09/29 03:30:16;;;;;;;;;;;10.30;48.80;;;;;;4299287;33;20070;-38
2021/09/29 03:32:42;;;;;;;;;;;10.40;48.70;;;;;;4311112;33;19967;-42
2021/09/29 03:35:11;;;;;;;;;;;10.40;48.80;;;;;;4311574;33;20069;-39
2021/09/29 03:37:39;;;;;;;;;;;10.40;48.60;;;;;;4311752;33;20049;-38
2021/09/29 03:40:09;;;;;;;;;;;10.50;48.50;;;;;;4311535;33;20047;-39
2021/09/29 03:42:35;;;;;;;;;;;10.50;48.50;;;;;;4311139;33;20447;-39
2021/09/29 03:45:02;;;;;;;;;;;10.50;48.50;;;;;;4299273;33;19987;-39
2021/09/29 03:47:31;;;;;;;;;;;10.60;48.20;;;;;;4311764;33;20132;-37
2021/09/29 03:49:57;;;;;;;;;;;10.60;48.30;;;;;;4325976;33;20117;-38
2021/09/29 03:52:24;;;;;;;;;;;10.60;48.30;;;;;;4313706;33;20457;-38
2021/09/29 03:54:50;;;;;;;;;;;10.60;48.40;;;;;;4353479;32;20060;-37
2021/09/29 03:57:16;;;;;;;;;;;10.60;48.50;;;;;;4344371;32;20075;-38
2021/09/29 03:59:42;;;;;;;;;;;10.60;48.50;;;;;;4357871;32;19994;-39
2021/09/29 04:02:08;;;;;;;;;;;10.70;48.30;;;;;;4357676;32;20351;-39
2021/09/29 04:04:35;;;;;;;;;;;10.70;48.10;;;;;;4358001;32;19966;-38
2021/09/29 04:07:01;;;;;;;;;;;10.80;48.00;;;;;;4359414;32;19975;-38
2021/09/29 04:09:27;;;;;;;;;;;10.90;47.90;;;;;;4346637;32;19970;-38
2021/09/29 04:11:53;;;;;;;;;;;11.00;47.70;;;;;;4360163;32;19977;-36
2021/09/29 04:14:22;;;;;;;;;;;11.00;47.30;;;;;;4360327;32;20072;-38
2021/09/29 04:16:48;;;;;;;;;;;11.20;47.40;;;;;;4360511;32;20140;-38
2021/09/29 04:19:15;;;;;;;;;;;11.20;46.90;;;;;;4346549;32;19973;-39
2021/09/29 04:21:41;;;;;;;;;;;11.30;46.70;;;;;;4360122;32;19965;-37
2021/09/29 04:24:09;;;;;;;;;;;11.30;46.30;;;;;;4360366;32;19994;-38
2021/09/29 04:26:35;;;;;;;;;;;11.40;46.10;;;;;;4360219;32;19950;-38
2021/09/29 04:29:01;;;;;;;;;;;11.50;46.00;;;;;;4359939;32;19973;-38
2021/09/29 04:31:27;;;;;;;;;;;11.60;45.40;;;;;;4360319;32;20034;-38
2021/09/29 04:33:53;;;;;;;;;;;11.60;45.10;;;;;;4359759;32;20425;-37
2021/09/29 04:36:20;;;;;;;;;;;11.70;45.20;;;;;;4346662;32;19958;-38
2021/09/29 04:38:46;;;;;;;;;;;11.90;44.90;;;;;;4360156;32;19970;-38
2021/09/29 04:41:12;;;;;;;;;;;12.00;44.50;;;;;;4360002;32;20402;-38
2021/09/29 04:43:39;;;;;;;;;;;12.10;43.90;;;;;;4360011;32;19994;-37
2021/09/29 04:46:05;;;;;;;;;;;12.20;43.70;;;;;;4360283;32;19958;-38
2021/09/29 04:48:32;;;;;;;;;;;12.50;43.60;;;;;;4352938;32;19982;-38
2021/09/29 04:50:59;;;;;;;;;;;12.60;43.20;;;;;;4344777;33;19986;-38
2021/09/29 04:53:25;;;;;;;;;;;12.90;42.80;;;;;;4344386;33;19969;-37
2021/09/29 04:55:52;;;;;;;;;;;13.00;42.20;;;;;;4344704;33;20006;-37
2021/09/29 04:58:18;;;;;;;;;;;13.20;41.70;;;;;;4345293;33;19966;-37
2021/09/29 05:00:44;;;;;;;;;;;13.40;41.60;;;;;;4344798;33;20005;-37
2021/09/29 05:03:10;;;;;;;;;;;13.60;41.20;;;;;;4344530;33;19962;-38
2021/09/29 05:05:37;;;;;;;;;;;13.80;40.70;;;;;;4344664;33;20420;-37
2021/09/29 05:08:05;;;;;;;;;;;14.00;40.20;;;;;;4344440;33;19973;-37
2021/09/29 05:10:38;;;;;;;;;;;14.20;39.70;;;;;;4331062;33;19970;-37
2021/09/29 05:13:08;;;;;;;;;;;14.40;39.50;;;;;;4344456;33;20052;-37
2021/09/29 05:15:34;;;;;;;;;;;14.60;38.90;;;;;;4344370;33;20025;-37
2021/09/29 05:18:00;;;;;;;;;;;14.80;38.40;;;;;;4343632;32;19963;-37
2021/09/29 05:20:26;;;;;;;;;;;15.10;38.20;;;;;;4331031;33;19967;-37
2021/09/29 05:22:52;;;;;;;;;;;15.30;37.90;;;;;;4345243;33;19963;-36
2021/09/29 05:25:18;;;;;;;;;;;15.60;37.40;;;;;;4344456;33;20403;-37
2021/09/29 05:27:47;;;;;;;;;;;15.80;37.00;;;;;;4344435;33;19970;-37
2021/09/29 05:30:14;;;;;;;;;;;16.10;36.10;;;;;;4330770;33;19975;-37
2021/09/29 05:32:40;;;;;;;;;;;16.20;35.30;;;;;;4330541;33;20017;-37
2021/09/29 05:35:07;;;;;;;;;;;16.30;35.00;;;;;;4344311;33;19959;-37
2021/09/29 05:37:33;;;;;;;;;;;16.40;35.00;;;;;;4344317;33;20398;-36
2021/09/29 05:39:59;;;;;;;;;;;16.40;34.60;;;;;;4344262;33;19966;-38
2021/09/29 05:42:25;;;;;;;;;;;16.50;35.00;;;;;;4330721;33;19982;-37
2021/09/29 05:44:51;;;;;;;;;;;16.60;34.80;;;;;;4344328;33;20065;-37
2021/09/29 05:47:17;;;;;;;;;;;16.70;34.30;;;;;;4343806;33;19987;-36
2021/09/29 05:49:44;;;;;;;;;;;16.90;34.20;;;;;;4343957;33;20128;-36
2021/09/29 05:52:11;;;;;;;;;;;17.20;34.30;;;;;;4344369;33;20023;-36
2021/09/29 05:54:37;;;;;;;;;;;17.30;34.00;;;;;;4344064;33;20364;-38
2021/09/29 05:57:04;;;;;;;;;;;17.50;33.50;;;;;;4343992;33;19974;-37
2021/09/29 05:59:30;;;;;;;;;;;17.60;33.30;;;;;;4343986;33;19982;-37
2021/09/29 06:01:56;;;;;;;;;;;17.60;33.10;;;;;;4344009;33;20069;-37
2021/09/29 06:04:23;;;;;;;;;;;17.70;32.50;;;;;;4330489;33;20384;-36
2021/09/29 06:06:49;;;;;;;;;;;17.90;32.80;;;;;;4343919;33;20001;-37
2021/09/29 06:09:15;;;;;;;;;;;18.00;32.10;;;;;;4343803;33;20419;-36
2021/09/29 06:11:42;;;;;;;;;;;18.00;31.40;;;;;;4343961;33;20045;-36
2021/09/29 06:14:09;;;;;;;;;;;18.10;30.40;;;;;;4343596;33;20058;-37
2021/09/29 06:16:42;;;;;;;;;;;18.20;30.30;;;;;;4343689;33;19970;-37
2021/09/29 06:19:10;;;;;;;;;;;18.20;30.10;;;;;;4343550;33;20471;-37
2021/09/29 06:21:37;;;;;;;;;;;18.40;30.40;;;;;;4356879;32;20117;-36
2021/09/29 06:24:04;;;;;;;;;;;18.50;29.80;;;;;;4358738;32;19977;-37
2021/09/29 06:26:30;;;;;;;;;;;18.60;29.70;;;;;;4358873;32;19981;-36
2021/09/29 06:28:58;;;;;;;;;;;18.70;29.70;;;;;;4358130;32;19966;-36
2021/09/29 06:31:26;;;;;;;;;;;18.80;29.50;;;;;;4358514;32;19973;-37
2021/09/29 06:33:53;;;;;;;;;;;18.80;29.30;;;;;;4358530;32;20065;-38
2021/09/29 06:36:19;;;;;;;;;;;18.70;29.40;;;;;;4358528;32;20045;-37
2021/09/29 06:38:45;;;;;;;;;;;18.60;29.20;;;;;;4358338;32;19966;-40
2021/09/29 06:41:11;;;;;;;;;;;18.60;29.60;;;;;;4326166;33;19971;-37
2021/09/29 06:43:38;;;;;;;;;;;18.50;29.50;;;;;;4326330;33;20060;-37
2021/09/29 06:46:04;;;;;;;;;;;18.60;29.60;;;;;;4326177;33;20158;-37
2021/09/29 06:48:30;;;;;;;;;;;18.50;29.50;;;;;;4319523;33;19975;-36
2021/09/29 06:50:56;;;;;;;;;;;18.50;29.60;;;;;;4311664;33;20454;-36
2021/09/29 06:53:25;;;;;;;;;;;18.40;29.50;;;;;;4311644;33;19983;-37
2021/09/29 06:55:52;;;;;;;;;;;18.40;29.80;;;;;;4311740;33;19979;-36
2021/09/29 06:58:18;;;;;;;;;;;18.50;29.90;;;;;;4311508;33;19975;-36
2021/09/29 07:00:44;;;;;;;;;;;18.60;29.80;;;;;;4311091;33;20011;-35
2021/09/29 07:03:12;;;;;;;;;;;18.70;29.70;;;;;;4311706;33;20360;-35
2021/09/29 07:05:39;;;;;;;;;;;18.80;29.20;;;;;;4311659;33;20037;-36
2021/09/29 07:08:05;;;;;;;;;;;18.80;28.20;;;;;;4311412;33;20470;-36
2021/09/29 07:10:32;;;;;;;;;;;18.90;27.90;;;;;;4299372;33;20052;-37
2021/09/29 07:12:58;;;;;;;;;;;19.00;27.30;;;;;;4311454;33;20463;-37
2021/09/29 07:15:25;;;;;;;;;;;19.10;27.10;;;;;;4311698;33;19990;-37
2021/09/29 07:17:57;;;;;;;;;;;19.10;26.40;;;;;;4317377;33;19974;-36
2021/09/29 07:20:23;;;;;;;;;;;19.20;26.40;;;;;;4343241;33;20049;-36
2021/09/29 07:22:50;;;;;;;;;;;19.10;26.20;;;;;;4343141;33;20051;-36
2021/09/29 07:25:16;;;;;;;;;;;19.10;26.40;;;;;;4329320;33;20451;-37
2021/09/29 07:27:42;;;;;;;;;;;19.30;26.60;;;;;;4342981;33;20084;-36
2021/09/29 07:30:09;;;;;;;;;;;19.40;25.90;;;;;;4342964;33;20461;-36
2021/09/29 07:32:35;;;;;;;;;;;19.50;25.90;;;;;;4343298;33;19986;-36
2021/09/29 07:35:01;;;;;;;;;;;19.50;24.80;;;;;;4343199;33;20005;-36
2021/09/29 07:37:27;;;;;;;;;;;19.70;25.20;;;;;;4343171;33;19975;-36
2021/09/29 07:39:54;;;;;;;;;;;19.90;25.20;;;;;;4342889;32;19994;-35
2021/09/29 07:42:20;;;;;;;;;;;20.00;24.60;;;;;;4345510;33;19965;-36
2021/09/29 07:44:46;;;;;;;;;;;20.00;24.60;;;;;;4345622;33;20437;-36
2021/09/29 07:47:12;;;;;;;;;;;20.10;24.70;;;;;;4345471;33;20001;-36
2021/09/29 07:49:39;;;;;;;;;;;20.20;24.60;;;;;;4359917;32;19989;-36
2021/09/29 07:52:05;;;;;;;;;;;20.30;24.30;;;;;;4360674;32;20053;-36
2021/09/29 07:54:32;;;;;;;;;;;20.40;24.30;;;;;;4361032;32;19962;-35
2021/09/29 07:56:58;;;;;;;;;;;20.50;24.10;;;;;;4360592;32;19951;-36
2021/09/29 07:59:24;;;;;;;;;;;20.70;24.00;;;;;;4360228;32;19993;-36
2021/09/29 08:01:51;;;;;;;;;;;20.70;23.00;;;;;;4360432;32;20453;-37
2021/09/29 08:04:20;;;;;;;;;;;20.70;23.00;;;;;;4360729;32;19981;-36
2021/09/29 08:06:48;;;;;;;;;;;20.60;22.90;;;;;;4360899;32;19962;-36
2021/09/29 08:09:15;;;;;;;;;;;20.50;23.20;;;;;;4360739;32;19978;-36
2021/09/29 08:11:41;;;;;;;;;;;20.50;23.30;;;;;;4360334;32;20004;-35
2021/09/29 08:14:07;;;;;;;;;;;20.60;22.90;;;;;;4360525;32;20453;-36
2021/09/29 08:16:33;;;;;;;;;;;20.70;22.60;;;;;;4360959;32;20048;-36
2021/09/29 08:19:00;;;;;;;;;;;20.70;22.40;;;;;;4346046;32;19980;-35
2021/09/29 08:21:30;;;;;;;;;;;20.60;22.60;;;;;;4359761;32;20009;-37
2021/09/29 08:24:04;;;;;;;;;;;20.60;22.70;;;;;;4360177;32;20006;-35
2021/09/29 08:26:42;;;;;;;;;;;20.70;22.60;;;;;;4360222;32;19959;-36
2021/09/29 08:32:10;;;;;;;;;;;20.80;22.40;;;;;;4360084;32;20087;-38
2021/09/29 08:34:51;;;;;;;;;;;20.80;22.50;;;;;;4359873;32;19967;-37
2021/09/29 08:45:02;;;;;;;;;;;21.20;21.90;;;;;;4359762;32;19995;-37
2021/09/29 08:47:37;;;;;;;;;;;21.30;22.10;;;;;;4335667;32;19966;-37
2021/09/29 08:52:49;;;;;;;;;;;21.30;21.70;;;;;;4344551;32;20087;-36
2021/09/29 09:14:50;;;;;;;;;;;20.60;21.50;;;;;;4317492;33;20118;-36
2021/09/29 09:14:52;;;;;;;;;;;20.20;22.00;;;;;;4327097;33;20017;-37
2021/09/29 09:17:37;;;;;;;;;;;20.20;22.20;;;;;;4327572;33;20002;-36
2021/09/29 09:20:17;;;;;;;;;;;20.30;22.10;;;;;;4327296;33;19971;-36
2021/09/29 09:22:44;;;;;;;;;;;20.30;21.70;;;;;;4297689;33;20030;-36
2021/09/29 09:25:10;;;;;;;;;;;20.40;22.00;;;;;;4298415;33;19975;-37
2021/09/29 09:27:42;;;;;;;;;;;20.50;22.10;;;;;;4298839;33;19968;-37
2021/09/29 09:30:08;;;;;;;;;;;20.50;21.60;;;;;;4313207;33;20056;-38
2021/09/29 09:32:49;;;;;;;;;;;20.60;21.90;;;;;;4312492;33;19983;-37
2021/09/29 09:35:15;;;;;;;;;;;20.80;21.60;;;;;;4312748;33;19999;-37
2021/09/29 09:37:44;;;;;;;;;;;20.90;21.70;;;;;;4312461;33;20054;-37
2021/09/29 09:40:13;;;;;;;;;;;20.90;21.70;;;;;;4312139;33;20494;-36
2021/09/29 09:42:41;;;;;;;;;;;21.10;21.40;;;;;;4312408;33;20069;-35
2021/09/29 09:45:08;;;;;;;;;;;21.40;21.70;;;;;;4312783;33;19968;-36
2021/09/29 09:47:39;;;;;;;;;;;21.60;21.50;;;;;;4313372;33;19967;-37
2021/09/29 09:50:06;;;;;;;;;;;21.80;21.20;;;;;;4327109;33;20052;-35
2021/09/29 09:52:36;;;;;;;;;;;21.80;21.30;;;;;;4327036;32;20001;-36
2021/09/29 09:55:11;;;;;;;;;;;21.90;21.10;;;;;;4358664;32;19966;-35
2021/09/29 09:57:39;;;;;;;;;;;21.80;21.10;;;;;;4345032;32;19970;-37
2021/09/29 10:00:08;;;;;;;;;;;21.60;20.80;;;;;;4359050;32;20046;-37
2021/09/29 10:02:42;;;;;;;;;;;21.40;20.90;;;;;;4358730;32;19966;-35
2021/09/29 10:05:13;;;;;;;;;;;21.30;21.40;;;;;;4344888;32;20005;-36
2021/09/29 10:07:40;;;;;;;;;;;21.20;21.40;;;;;;4345228;32;20109;-36
2021/09/29 10:10:16;;;;;;;;;;;21.20;21.40;;;;;;4358790;32;19978;-36
2021/09/29 10:13:04;;;;;;;;;;;21.20;21.10;;;;;;4358770;32;20127;-35
2021/09/29 10:23:59;;;;;;;;;;;21.30;21.40;;;;;;4358699;32;20024;-37
2021/09/29 10:26:26;;;;;;;;;;;21.20;21.40;;;;;;4358382;32;19963;-37
2021/09/29 10:29:06;;;;;;;;;;;21.00;21.60;;;;;;4340401;33;20082;-36
2021/09/29 10:31:43;;;;;;;;;;;20.90;21.80;;;;;;4341154;33;19979;-37
2021/09/29 10:47:59;;;;;;;;;;;20.20;21.80;;;;;;4339701;33;19974;-37
2021/09/29 11:10:03;;;;;;;;;;;20.30;22.00;;;;;;4343163;33;20046;-37
2021/09/29 11:29:21;;;;;;;;;;;20.10;22.10;;;;;;4334111;33;20423;-37
2021/09/29 11:31:52;;;;;;;;;;;20.20;22.10;;;;;;4345700;33;19978;-37
2021/09/29 11:34:22;;;;;;;;;;;20.20;22.20;;;;;;4346218;33;20055;-37
2021/09/29 12:12:16;;;;;;;;;;;19.90;22.30;;;;;;4345899;33;19974;-38
2021/09/29 12:14:54;;;;;;;;;;;20.20;22.30;;;;;;4345264;33;19967;-38
2021/09/29 12:17:24;;;;;;;;;;;20.30;22.10;;;;;;4345703;33;19970;-37
2021/09/29 12:19:53;;;;;;;;;;;20.40;22.20;;;;;;4345567;33;21485;-37
2021/09/29 12:22:21;;;;;;;;;;;20.50;22.10;;;;;;4345664;33;20064;-36
2021/09/29 12:27:36;;;;;;;;;;;20.50;22.20;;;;;;4345004;32;20441;-37
2021/09/29 12:30:21;;;;;;;;;;;20.50;22.20;;;;;;4345186;33;19982;-37
2021/09/29 12:33:34;;;;;;;;;;;20.40;22.10;;;;;;4345702;33;19966;-37
2021/09/29 12:36:00;;;;;;;;;;;20.30;22.10;;;;;;4344911;33;20510;-38
2021/09/29 12:38:37;;;;;;;;;;;20.10;22.30;;;;;;4331377;33;19970;-37
2021/09/29 12:41:03;;;;;;;;;;;20.10;22.50;;;;;;4344882;33;19974;-37
2021/09/29 12:43:30;;;;;;;;;;;20.10;22.60;;;;;;4344979;33;19963;-37
2021/09/29 12:45:56;;;;;;;;;;;20.00;22.40;;;;;;4331285;33;20408;-37
2021/09/29 12:48:25;;;;;;;;;;;20.00;22.50;;;;;;4351210;32;19973;-37
2021/09/29 12:51:03;;;;;;;;;;;20.10;22.70;;;;;;4359525;32;20385;-38
2021/09/29 12:53:45;;;;;;;;;;;20.10;22.80;;;;;;4359824;32;19974;-37
2021/09/29 12:56:17;;;;;;;;;;;20.20;22.70;;;;;;4359804;32;20370;-36
2021/09/29 12:58:44;;;;;;;;;;;20.10;22.60;;;;;;4359893;32;20046;-37
2021/09/29 13:01:11;;;;;;;;;;;20.00;22.30;;;;;;4359935;32;20404;-37
2021/09/29 13:03:37;;;;;;;;;;;19.90;22.40;;;;;;4359580;32;19962;-36
2021/09/29 13:06:05;;;;;;;;;;;19.90;22.50;;;;;;4359791;32;20061;-38
2021/09/29 13:08:32;;;;;;;;;;;19.80;22.60;;;;;;4359678;32;20050;-37
2021/09/29 13:10:59;;;;;;;;;;;19.80;22.60;;;;;;4359887;32;20063;-37
2021/09/29 13:13:26;;;;;;;;;;;19.70;22.50;;;;;;4345731;32;19974;-37
2021/09/29 13:15:54;;;;;;;;;;;19.70;22.70;;;;;;4359485;32;19970;-36
2021/09/29 13:18:47;;;;;;;;;;;19.70;22.80;;;;;;4359310;32;19970;-37
2021/09/29 13:21:13;;;;;;;;;;;19.60;22.80;;;;;;4358734;32;20039;-38
2021/09/29 13:37:18;;;;;;;;;;;19.30;23.30;;;;;;4326818;33;19987;-38
2021/09/29 13:39:45;;;;;;;;;;;19.20;23.40;;;;;;4326049;33;20080;-36
2021/09/29 13:42:11;;;;;;;;;;;19.20;23.40;;;;;;4326843;33;20042;-38
2021/09/29 13:44:37;;;;;;;;;;;19.10;23.40;;;;;;4326936;33;20103;-37
2021/09/29 13:47:03;;;;;;;;;;;19.00;23.50;;;;;;4326993;33;19979;-38
2021/09/29 13:49:30;;;;;;;;;;;18.90;23.50;;;;;;4327111;33;19990;-38
2021/09/29 13:51:58;;;;;;;;;;;18.80;23.60;;;;;;4327293;33;20058;-38
2021/09/29 13:54:25;;;;;;;;;;;18.80;23.70;;;;;;4326939;33;19991;-38
2021/09/29 14:29:23;;;;;;;;;;;17.60;24.90;;;;;;4346446;32;20009;-38
2021/09/29 14:34:17;;;;;;;;;;;17.40;25.00;;;;;;4358331;32;20006;-39
2021/09/29 14:36:44;;;;;;;;;;;17.40;25.10;;;;;;4357975;32;19982;-38
2021/09/29 14:39:11;;;;;;;;;;;17.30;25.10;;;;;;4358267;32;19978;-37
2021/09/29 14:41:37;;;;;;;;;;;17.30;25.10;;;;;;4358424;32;20001;-38
2021/09/29 14:44:03;;;;;;;;;;;17.30;25.20;;;;;;4358545;32;19966;-37
2021/09/29 14:46:30;;;;;;;;;;;17.20;25.20;;;;;;4358102;32;19966;-38
2021/09/29 14:48:56;;;;;;;;;;;17.20;25.30;;;;;;4348839;32;19970;-38
2021/09/29 14:51:22;;;;;;;;;;;17.20;25.40;;;;;;4343021;32;19963;-40
2021/09/29 14:53:49;;;;;;;;;;;17.20;25.50;;;;;;4342948;32;20076;-38
2021/09/29 14:56:17;;;;;;;;;;;17.10;25.50;;;;;;4342861;32;19967;-39
2021/09/29 14:58:43;;;;;;;;;;;17.10;25.50;;;;;;4343560;32;19966;-37
2021/09/29 15:01:10;;;;;;;;;;;17.00;25.60;;;;;;4343497;32;20042;-39
2021/09/29 15:03:37;;;;;;;;;;;16.90;25.50;;;;;;4343128;32;20038;-38
2021/09/29 15:06:03;;;;;;;;;;;16.80;25.70;;;;;;4343054;32;19982;-38
2021/09/29 15:08:31;;;;;;;;;;;16.70;25.80;;;;;;4343237;32;20081;-38
2021/09/29 15:10:57;;;;;;;;;;;16.60;25.90;;;;;;4343408;32;20404;-38
2021/09/29 15:13:32;;;;;;;;;;;16.50;26.00;;;;;;4343340;32;19970;-40
2021/09/29 15:16:03;;;;;;;;;;;16.40;26.10;;;;;;4343088;32;19990;-38
2021/09/29 15:26:19;;;;;;;;;;;16.20;26.60;;;;;;4358105;32;19973;-38
2021/09/29 15:29:00;;;;;;;;;;;16.20;26.90;;;;;;4357862;32;19967;-39
2021/09/29 15:48:14;;;;;;;;;;;15.80;27.20;;;;;;4352510;32;20039;-38
2021/09/29 15:50:49;;;;;;;;;;;15.70;27.30;;;;;;4342910;32;20449;-38
2021/09/29 16:00:56;;;;;;;;;;;15.50;27.90;;;;;;4342934;33;20051;-42
2021/09/29 16:05:56;;;;;;;;;;;15.40;28.00;;;;;;4345945;32;19963;-37
2021/09/29 16:08:43;;;;;;;;;;;15.40;28.00;;;;;;4345659;33;20006;-37
2021/09/29 16:14:22;;;;;;;;;;;15.20;28.20;;;;;;4345531;32;19965;-37
2021/09/29 16:22:18;;;;;;;;;;;15.00;28.80;;;;;;4345876;33;20047;-39
2021/09/29 16:30:22;;;;;;;;;;;14.80;29.00;;;;;;4344859;33;20108;-38
2021/09/29 16:37:46;;;;;;;;;;;14.70;29.20;;;;;;4331750;33;19993;-38
2021/09/29 16:40:13;;;;;;;;;;;14.60;29.30;;;;;;4331960;32;19963;-38
2021/09/29 16:42:39;;;;;;;;;;;14.60;29.30;;;;;;4345071;33;20003;-38
2021/09/29 16:45:09;;;;;;;;;;;14.60;29.40;;;;;;4344971;32;20443;-39
2021/09/29 16:47:35;;;;;;;;;;;14.50;29.50;;;;;;4346547;32;19975;-38
2021/09/29 16:50:03;;;;;;;;;;;14.50;29.50;;;;;;4360509;32;19977;-38
2021/09/29 16:52:40;;;;;;;;;;;14.50;29.60;;;;;;4360150;32;19982;-39
2021/09/29 16:55:11;;;;;;;;;;;14.50;29.70;;;;;;4359722;32;20509;-37
2021/09/29 16:57:46;;;;;;;;;;;14.50;29.90;;;;;;4360019;32;19990;-38
2021/09/29 17:00:23;;;;;;;;;;;14.50;30.60;;;;;;4359570;32;19979;-38
2021/09/29 17:02:49;;;;;;;;;;;14.40;30.00;;;;;;4347091;32;19975;-39
2021/09/29 17:05:15;;;;;;;;;;;14.40;30.20;;;;;;4359501;32;20020;-37
2021/09/29 17:07:41;;;;;;;;;;;14.40;30.30;;;;;;4359720;32;19996;-38
2021/09/29 17:10:12;;;;;;;;;;;14.40;30.40;;;;;;4359407;32;20336;-37
2021/09/29 17:12:40;;;;;;;;;;;14.40;30.50;;;;;;4359468;32;19996;-39
2021/09/29 17:15:07;;;;;;;;;;;14.30;30.60;;;;;;4359392;32;19996;-38
2021/09/29 17:17:35;;;;;;;;;;;14.30;30.70;;;;;;4359759;32;20497;-38
2021/09/29 17:20:04;;;;;;;;;;;14.30;30.70;;;;;;4359741;32;20035;-39
2021/09/29 17:22:30;;;;;;;;;;;14.30;31.20;;;;;;4359951;32;19973;-39
2021/09/29 17:24:56;;;;;;;;;;;14.20;31.30;;;;;;4358989;32;20445;-39
2021/09/29 17:27:22;;;;;;;;;;;14.10;31.20;;;;;;4358740;32;20049;-38
2021/09/29 17:29:50;;;;;;;;;;;14.10;31.30;;;;;;4359073;32;19985;-39
2021/09/29 17:32:36;;;;;;;;;;;14.00;31.70;;;;;;4359070;32;19999;-38
2021/09/29 17:35:51;;;;;;;;;;;14.00;31.80;;;;;;4345141;32;20407;-39
2021/09/29 17:54:00;;;;;;;;;;;13.90;32.00;;;;;;4344153;32;20002;-39
2021/09/29 17:56:26;;;;;;;;;;;13.90;32.00;;;;;;4343817;33;20459;-38
2021/09/29 17:58:53;;;;;;;;;;;13.90;32.00;;;;;;4343648;32;19975;-38
2021/09/29 18:01:25;;;;;;;;;;;13.90;32.00;;;;;;4344043;32;19997;-38
2021/09/29 18:04:12;;;;;;;;;;;13.90;32.00;;;;;;4343762;33;19982;-38
2021/09/29 18:07:26;;;;;;;;;;;13.90;32.00;;;;;;4343261;33;19982;-38
2021/09/29 18:09:26;;;;;;;;;;;13.90;32.10;;;;;;4339155;32;20071;-38
2021/09/29 18:11:52;;;;;;;;;;;13.90;32.30;;;;;;4344029;32;19974;-39
2021/09/29 18:14:22;;;;;;;;;;;13.90;32.40;;;;;;4344004;33;20046;-39
2021/09/29 18:16:48;;;;;;;;;;;13.80;32.40;;;;;;4343803;32;19982;-38
2021/09/29 18:19:18;;;;;;;;;;;13.80;32.60;;;;;;4343643;32;19963;-37
2021/09/29 18:21:45;;;;;;;;;;;13.80;32.90;;;;;;4343531;33;20411;-38
2021/09/29 18:24:12;;;;;;;;;;;13.70;33.30;;;;;;4343841;33;19970;-38
2021/09/29 18:26:38;;;;;;;;;;;13.70;33.50;;;;;;4343578;33;20511;-37
2021/09/29 18:29:05;;;;;;;;;;;13.60;33.50;;;;;;4343829;33;19958;-38